Time;durP1;ratioP1;P1;durP2;ratioP2;P2;SDS_P1;SDS_P2;PMS_P1;PMS_P2;Temp;Humidity;BMP_temperature;BMP_pressure;BME280_temperature;BME280_humidity;BME280_pressure;Samples;Min_cycle;Max_cycle;Signal;HPM_P1;HPM_P2
2022/01/13 00:02:10;;;;;;;32.33;11.15;;;4.80;99.90;;;4.61;91.00;103534.69;5184443;28;19922;-84
2022/01/13 00:04:43;;;;;;;33.03;12.15;;;4.80;99.90;;;4.61;90.69;103528.63;5189993;28;20161;-83
2022/01/13 00:07:15;;;;;;;33.95;12.65;;;4.80;99.90;;;4.60;90.63;103529.38;5189031;28;20415;-79
2022/01/13 00:09:47;;;;;;;32.20;12.27;;;4.80;99.90;;;4.60;90.86;103532.88;5188248;28;20504;-83
2022/01/13 00:12:20;;;;;;;31.38;12.00;;;4.80;99.90;;;4.59;90.71;103530.16;5187971;28;20056;-84
2022/01/13 00:15:09;;;;;;;31.92;12.50;;;4.70;99.90;;;4.58;90.95;103524.06;5188552;28;20050;-84
2022/01/13 00:17:58;;;;;;;35.80;12.02;;;4.70;99.90;;;4.58;90.47;103513.72;5189321;28;20423;-83
2022/01/13 00:20:38;;;;;;;31.15;12.50;;;4.70;99.90;;;4.58;90.65;103515.41;5189145;28;20057;-84
2022/01/13 00:26:02;;;;;;;35.28;12.70;;;4.70;99.90;;;4.56;90.19;103523.00;5189150;28;20046;-82
2022/01/13 00:28:35;;;;;;;30.55;11.73;;;4.70;99.90;;;4.57;90.66;103521.34;5187281;28;20109;-83
2022/01/13 00:31:08;;;;;;;27.63;10.85;;;4.70;99.90;;;4.56;90.82;103517.84;5187509;28;20145;-83
2022/01/13 00:33:44;;;;;;;35.47;12.30;;;4.70;99.90;;;4.58;90.06;103526.66;5188496;28;20104;-84
2022/01/13 00:36:16;;;;;;;34.80;11.75;;;4.70;99.90;;;4.56;90.42;103525.59;5187836;28;20427;-84
2022/01/13 00:38:48;;;;;;;31.02;10.80;;;4.70;99.90;;;4.53;90.45;103520.09;5187887;28;20045;-85
2022/01/13 00:41:20;;;;;;;33.13;12.00;;;4.70;99.90;;;4.48;90.28;103528.13;5187897;28;20045;-85
2022/01/13 00:43:52;;;;;;;30.88;10.38;;;4.70;99.90;;;4.54;90.40;103537.41;5187925;28;20053;-85
2022/01/13 00:46:29;;;;;;;30.42;11.70;;;4.70;99.90;;;4.53;90.51;103535.59;5187422;28;20056;-84
2022/01/13 00:49:01;;;;;;;34.28;12.07;;;4.70;99.90;;;4.54;90.50;103542.59;5187211;28;20503;-83
2022/01/13 00:51:33;;;;;;;32.63;11.98;;;4.70;99.90;;;4.56;90.57;103541.09;5187930;28;20060;-81
2022/01/13 00:54:07;;;;;;;32.03;12.45;;;4.70;99.90;;;4.56;90.10;103534.97;5187523;28;20110;-82
2022/01/13 00:56:40;;;;;;;29.92;12.05;;;4.70;99.90;;;4.55;90.07;103534.06;5188382;28;20046;-82
2022/01/13 00:59:14;;;;;;;33.83;12.35;;;4.70;99.90;;;4.55;90.23;103536.66;5187053;28;20053;-83
2022/01/13 01:01:51;;;;;;;37.47;12.77;;;4.70;99.90;;;4.55;90.27;103539.25;5186812;28;20505;-83
2022/01/13 01:04:24;;;;;;;34.65;11.68;;;4.70;99.90;;;4.53;90.36;103535.59;5186293;28;20049;-84
2022/01/13 01:06:56;;;;;;;29.73;11.18;;;4.70;99.90;;;4.54;90.26;103540.00;5186645;28;20112;-83
2022/01/13 01:09:38;;;;;;;32.92;12.05;;;4.70;99.90;;;4.54;90.31;103542.59;5186077;28;20049;-84
2022/01/13 01:12:11;;;;;;;34.45;11.82;;;4.60;99.90;;;4.53;90.15;103540.75;5186360;28;20058;-84
2022/01/13 01:14:48;;;;;;;33.38;12.73;;;4.70;99.90;;;4.52;90.35;103538.03;5186382;28;20056;-83
2022/01/13 01:17:22;;;;;;;30.90;11.20;;;4.70;99.90;;;4.49;89.89;103538.59;5187085;28;20054;-83
2022/01/13 01:19:54;;;;;;;32.42;11.40;;;4.70;99.90;;;4.48;90.30;103547.13;5187629;28;20137;-83
2022/01/13 01:25:42;;;;;;;31.70;11.63;;;4.60;99.90;;;4.48;90.40;103552.28;5186134;28;20046;-83
2022/01/13 01:28:21;;;;;;;35.13;10.75;;;4.60;99.90;;;4.47;90.46;103553.03;5195208;28;20511;-83
2022/01/13 01:30:55;;;;;;;37.47;13.13;;;4.60;99.90;;;4.46;90.59;103548.63;5186757;28;20053;-84
2022/01/13 01:33:28;;;;;;;32.28;12.57;;;4.60;99.90;;;4.43;90.16;103553.47;5186342;28;20126;-85
2022/01/13 01:36:00;;;;;;;33.15;11.65;;;4.60;99.90;;;4.44;90.44;103555.31;5185959;28;20080;-84
2022/01/13 01:38:33;;;;;;;36.28;12.57;;;4.60;99.90;;;4.35;90.29;103544.03;5186188;28;20233;-84
2022/01/13 01:41:06;;;;;;;34.65;11.75;;;4.60;99.90;;;4.44;90.70;103555.31;5189419;28;20050;-84
2022/01/13 01:43:38;;;;;;;38.63;13.38;;;4.60;99.90;;;4.44;90.81;103560.50;5190681;28;20046;-83
2022/01/13 01:46:09;;;;;;;33.45;11.80;;;4.60;99.90;;;4.40;90.79;103565.19;5190775;28;20050;-84
2022/01/13 01:48:43;;;;;;;33.17;12.35;;;4.60;99.90;;;4.32;90.90;103560.13;5191007;28;20057;-81
2022/01/13 01:51:15;;;;;;;30.50;11.70;;;4.60;99.90;;;4.33;90.80;103561.97;5191994;28;20050;-81
2022/01/13 01:53:47;;;;;;;35.45;12.48;;;4.60;99.90;;;4.42;90.33;103576.56;5192864;28;20427;-81
2022/01/13 01:56:19;;;;;;;36.83;12.48;;;4.60;99.90;;;4.38;90.13;103575.34;5193184;28;20050;-80
2022/01/13 01:58:51;;;;;;;35.33;11.18;;;4.60;99.90;;;4.36;90.23;103572.59;5193717;28;20416;-80
2022/01/13 02:01:23;;;;;;;33.20;11.93;;;4.50;99.90;;;4.34;90.17;103565.44;5192357;28;20100;-80
2022/01/13 02:03:56;;;;;;;35.85;11.57;;;4.50;99.90;;;4.33;89.99;103558.47;5191698;28;20057;-80
2022/01/13 02:06:29;;;;;;;33.55;9.68;;;4.50;99.90;;;4.33;89.40;103561.03;5192143;28;20060;-80
2022/01/13 02:09:01;;;;;;;35.83;11.35;;;4.50;99.90;;;4.32;89.18;103564.38;5203530;28;20618;-80
2022/01/13 02:11:40;;;;;;;29.55;10.02;;;4.50;99.90;;;4.26;88.79;103574.06;5210989;28;20049;-80
2022/01/13 02:14:32;;;;;;;38.60;11.23;;;4.50;99.90;;;4.18;88.76;103567.22;5210717;28;20160;-80
2022/01/13 02:17:09;;;;;;;38.20;11.45;;;4.50;99.90;;;4.19;88.71;103574.19;5211136;28;20418;-79
2022/01/13 02:19:45;;;;;;;31.92;11.35;;;4.40;99.90;;;4.19;88.76;103571.63;5210544;28;20409;-80
2022/01/13 02:22:19;;;;;;;30.67;10.48;;;4.40;99.90;;;4.23;88.48;103566.00;5210680;28;20045;-80
2022/01/13 02:24:51;;;;;;;24.48;9.43;;;4.40;99.90;;;4.23;88.32;103568.56;5210463;28;20144;-80
2022/01/13 02:27:24;;;;;;;28.67;10.07;;;4.40;99.90;;;4.24;88.46;103560.09;5210400;28;20057;-80
2022/01/13 02:29:56;;;;;;;32.75;10.30;;;4.50;99.90;;;4.23;88.19;103559.16;5210509;28;20046;-81
2022/01/13 02:32:27;;;;;;;29.98;10.40;;;4.40;99.90;;;4.23;88.39;103558.25;5209835;28;20056;-79
2022/01/13 02:34:59;;;;;;;33.95;10.65;;;4.40;99.90;;;4.25;88.48;103554.19;5209897;28;20052;-80
2022/01/13 02:37:33;;;;;;;30.65;10.40;;;4.40;99.90;;;4.23;88.54;103545.34;5210483;28;20533;-80
2022/01/13 02:40:06;;;;;;;31.08;11.20;;;4.40;99.90;;;4.24;88.01;103544.59;5210316;28;20055;-80
2022/01/13 02:42:38;;;;;;;32.65;10.38;;;4.40;99.90;;;4.24;88.46;103545.53;5210351;28;20056;-80
2022/01/13 02:45:18;;;;;;;34.53;11.20;;;4.40;99.90;;;4.23;88.28;103542.75;5209631;28;20050;-79
2022/01/13 02:50:45;;;;;;;33.97;11.45;;;4.40;99.90;;;4.25;88.54;103541.25;5194104;28;20050;-79
2022/01/13 02:53:18;;;;;;;30.02;10.40;;;4.40;99.90;;;4.25;88.10;103537.00;5210337;28;20407;-80
2022/01/13 02:55:50;;;;;;;26.70;10.30;;;4.40;99.90;;;4.26;88.30;103540.50;5210351;28;20049;-79
2022/01/13 02:58:23;;;;;;;32.38;11.00;;;4.40;99.90;;;4.27;88.30;103544.91;5211309;28;20065;-80
2022/01/13 03:00:57;;;;;;;33.25;12.18;;;4.40;99.90;;;4.27;88.24;103550.06;5209086;28;20080;-80
2022/01/13 03:03:31;;;;;;;30.88;11.20;;;4.40;99.90;;;4.28;88.44;103546.72;5208814;28;20045;-80
2022/01/13 03:06:07;;;;;;;31.80;11.57;;;4.40;99.90;;;4.28;88.51;103537.31;5208932;28;20107;-80
2022/01/13 03:08:46;;;;;;;31.63;10.80;;;4.50;99.90;;;4.27;88.36;103539.75;5209734;28;20555;-80
2022/01/13 03:11:18;;;;;;;38.85;11.60;;;4.40;99.90;;;4.29;88.44;103533.06;5210109;28;20484;-80
2022/01/13 03:13:50;;;;;;;35.72;11.32;;;4.40;99.90;;;4.31;88.31;103544.47;5209697;28;20057;-81
2022/01/13 03:16:22;;;;;;;34.15;11.85;;;4.50;99.90;;;4.29;88.23;103533.06;5209701;28;20049;-81
2022/01/13 03:18:54;;;;;;;34.72;12.82;;;4.50;99.90;;;4.28;87.84;103534.72;5209308;28;20045;-80
2022/01/13 03:21:26;;;;;;;32.95;11.23;;;4.50;99.90;;;4.27;87.98;103529.41;5208972;28;20050;-80
2022/01/13 03:23:59;;;;;;;33.63;11.95;;;4.40;99.90;;;4.25;88.19;103526.69;5209142;28;20072;-81
2022/01/13 03:26:32;;;;;;;36.08;11.73;;;4.40;99.90;;;4.25;87.86;103520.59;5209863;28;20049;-80
2022/01/13 03:29:15;;;;;;;27.45;9.63;;;4.40;99.90;;;4.24;87.74;103513.63;5209399;28;20052;-80
2022/01/13 03:31:49;;;;;;;29.42;9.85;;;4.40;99.90;;;4.19;87.90;103515.72;5209410;28;20049;-80
2022/01/13 03:34:21;;;;;;;28.98;10.68;;;4.40;99.90;;;4.19;87.73;103525.13;5209255;28;20057;-80
2022/01/13 03:36:54;;;;;;;28.90;9.65;;;4.40;99.90;;;4.17;87.50;103522.38;5209236;28;20045;-81
2022/01/13 03:39:28;;;;;;;27.60;10.15;;;4.30;99.90;;;4.13;87.87;103524.50;5209602;28;20045;-80
2022/01/13 03:42:02;;;;;;;31.02;10.27;;;4.30;99.90;;;4.11;87.83;103521.75;5209745;28;20045;-80
2022/01/13 03:44:34;;;;;;;35.20;10.85;;;4.30;99.90;;;4.11;87.88;103520.81;5209407;28;20072;-81
2022/01/13 03:47:09;;;;;;;36.70;11.82;;;4.30;99.90;;;4.07;87.99;103517.94;5210397;28;20050;-81
2022/01/13 03:49:42;;;;;;;32.40;11.60;;;4.30;99.90;;;4.06;87.95;103528.09;5209647;28;20516;-80
2022/01/13 03:53:18;;;;;;;29.80;10.88;;;4.20;99.90;;;4.02;88.15;103525.94;5210119;28;20046;-79
2022/01/13 03:57:27;;;;;;;32.22;11.50;;;4.20;99.90;;;4.00;88.54;103523.22;5210338;28;20061;-81
2022/01/13 04:01:01;;;;;;;36.22;11.07;;;4.20;99.90;;;3.96;88.27;103515.88;5210581;28;20079;-81
2022/01/13 04:03:33;;;;;;;32.00;10.80;;;4.20;99.90;;;3.95;88.68;103519.22;5210768;28;20056;-81
2022/01/13 04:06:40;;;;;;;38.65;12.27;;;4.20;99.90;;;3.96;88.75;103521.06;5211417;28;20053;-81
2022/01/13 04:09:31;;;;;;;32.90;11.07;;;4.20;99.90;;;3.97;88.65;103517.72;5210815;28;20465;-80
2022/01/13 04:12:06;;;;;;;33.88;11.90;;;4.20;99.90;;;3.95;88.96;103519.22;5210523;28;20050;-81
2022/01/13 04:14:45;;;;;;;35.83;11.43;;;4.20;99.90;;;3.95;89.24;103515.75;5211597;28;20049;-81
2022/01/13 04:17:22;;;;;;;38.17;12.57;;;4.10;99.90;;;3.94;89.28;103525.16;5212524;28;20057;-81
2022/01/13 04:19:55;;;;;;;41.60;12.82;;;4.10;99.90;;;3.93;89.60;103531.06;5212374;28;20523;-80
2022/01/13 04:22:28;;;;;;;39.30;13.43;;;4.10;99.90;;;3.93;89.65;103531.06;5212662;28;20053;-79
2022/01/13 04:25:00;;;;;;;34.63;12.65;;;4.10;99.90;;;3.94;89.45;103529.41;5217147;28;20133;-80
2022/01/13 04:27:37;;;;;;;35.13;11.13;;;4.10;99.90;;;3.94;89.68;103527.72;5210090;28;20456;-80
2022/01/13 04:33:01;;;;;;;34.40;11.90;;;4.10;99.90;;;3.96;89.92;103520.13;5208134;28;20184;-80
2022/01/13 04:35:33;;;;;;;36.38;11.73;;;4.10;99.90;;;3.95;90.16;103521.81;5207990;28;20111;-81
2022/01/13 04:38:07;;;;;;;37.30;12.23;;;4.10;99.90;;;3.96;90.05;103515.88;5208274;28;20415;-80
2022/01/13 04:40:44;;;;;;;37.22;13.35;;;4.10;99.90;;;3.98;89.83;103518.66;5208298;28;20049;-80
2022/01/13 04:43:16;;;;;;;37.17;11.90;;;4.10;99.90;;;4.00;89.69;103518.06;5208806;28;20053;-80
2022/01/13 04:45:49;;;;;;;37.40;11.60;;;4.20;99.90;;;3.99;90.05;103518.81;5208348;28;20052;-81
2022/01/13 04:48:22;;;;;;;31.08;10.80;;;4.20;99.90;;;4.01;89.94;103514.72;5208197;28;20067;-80
2022/01/13 04:50:54;;;;;;;36.70;11.60;;;4.20;99.90;;;4.00;89.84;103506.81;5208578;28;20052;-80
2022/01/13 04:53:27;;;;;;;35.30;11.30;;;4.20;99.90;;;3.94;89.71;103504.50;5208499;28;20051;-80
2022/01/13 04:56:08;;;;;;;29.45;10.02;;;4.20;99.90;;;3.99;89.61;103507.56;5208126;28;20190;-80
2022/01/13 04:58:40;;;;;;;29.27;9.50;;;4.20;99.90;;;4.06;89.81;103508.38;5207000;28;20049;-80
2022/01/13 05:01:12;;;;;;;38.63;12.25;;;4.20;99.90;;;4.04;89.18;103507.31;5207330;28;20049;-80
2022/01/13 05:03:44;;;;;;;31.42;11.10;;;4.20;99.90;;;4.01;89.23;103506.06;5207640;28;20057;-80
2022/01/13 05:06:17;;;;;;;39.85;12.07;;;4.20;99.90;;;3.94;89.26;103503.59;5207803;28;20050;-80
2022/01/13 05:08:52;;;;;;;34.47;13.45;;;4.10;99.90;;;3.91;89.49;103511.94;5206911;28;20091;-80
2022/01/13 05:11:24;;;;;;;32.17;12.07;;;4.10;99.90;;;3.93;89.67;103510.44;5206841;28;20060;-80
2022/01/13 05:13:56;;;;;;;42.42;12.40;;;4.10;99.90;;;3.95;89.52;103508.91;5206676;28;20051;-80
2022/01/13 05:16:34;;;;;;;36.80;12.27;;;4.10;99.90;;;3.97;89.48;103507.38;5206341;28;20188;-80
2022/01/13 05:19:15;;;;;;;37.97;13.70;;;4.10;99.90;;;3.97;89.40;103497.06;5206830;28;20143;-80
2022/01/13 05:22:15;;;;;;;39.55;12.43;;;4.10;99.90;;;3.97;89.33;103502.22;5206604;28;20119;-80
2022/01/13 05:24:40;;;;;;;41.05;12.85;;;4.20;99.90;;;3.98;89.63;103503.16;5206170;28;20049;-80
2022/01/13 05:27:12;;;;;;;34.22;12.93;;;4.10;99.90;;;3.96;89.46;103505.56;5206934;28;20052;-80
2022/01/13 05:29:43;;;;;;;39.33;11.70;;;4.10;99.90;;;3.96;89.41;103505.56;5206238;28;20054;-80
2022/01/13 05:32:15;;;;;;;38.35;12.00;;;4.20;99.90;;;3.96;89.36;103509.81;5206371;28;20060;-80
2022/01/13 05:34:47;;;;;;;37.17;12.90;;;4.10;99.90;;;3.95;89.42;103514.06;5206369;28;20072;-80
2022/01/13 05:37:19;;;;;;;34.10;11.88;;;4.10;99.90;;;3.94;89.56;103519.06;5206787;28;20053;-80
2022/01/13 05:39:52;;;;;;;38.42;12.70;;;4.10;99.90;;;3.92;89.54;103513.75;5208107;28;20054;-83
2022/01/13 05:42:25;;;;;;;37.35;12.40;;;4.10;99.90;;;3.91;89.73;103511.94;5210671;28;20484;-84
2022/01/13 05:44:59;;;;;;;38.70;13.07;;;4.10;99.90;;;3.91;89.65;103506.78;5207904;28;20053;-83
2022/01/13 05:47:31;;;;;;;39.67;12.43;;;4.10;99.90;;;3.92;89.62;103502.53;5208193;28;20046;-83
2022/01/13 05:50:04;;;;;;;31.58;11.75;;;4.10;99.90;;;3.88;89.35;103506.44;5208057;28;20045;-83
2022/01/13 05:52:36;;;;;;;37.22;12.70;;;4.10;99.90;;;3.84;89.48;103488.78;5207941;28;20059;-84
2022/01/13 05:55:10;;;;;;;38.15;12.45;;;4.10;99.90;;;3.86;89.08;103495.06;5207103;28;20228;-83
2022/01/13 05:57:43;;;;;;;32.92;11.50;;;4.00;99.90;;;3.84;89.44;103495.63;5207682;28;20404;-83
2022/01/13 06:00:18;;;;;;;37.60;12.52;;;4.00;99.90;;;3.84;89.62;103509.44;5316539;22;20053;-65
2022/01/13 06:02:51;;;;;;;32.63;11.35;;;4.00;99.90;;;3.87;89.42;103504.63;5220075;28;20071;-66
2022/01/13 06:05:25;;;;;;;35.38;11.23;;;4.00;99.90;;;3.87;88.89;103501.13;5224035;28;20047;-65
2022/01/13 06:07:57;;;;;;;42.08;11.65;;;4.10;99.90;;;3.78;88.52;103493.31;5224579;28;20136;-66
2022/01/13 06:10:31;;;;;;;34.40;11.65;;;4.00;99.90;;;3.70;89.10;103492.50;5224373;28;20041;-66
2022/01/13 06:13:03;;;;;;;36.67;11.75;;;3.90;99.90;;;3.67;89.17;103488.72;5224364;28;20624;-65
2022/01/13 06:15:37;;;;;;;35.72;11.48;;;3.90;99.90;;;3.66;89.55;103487.81;5224340;28;20049;-68
2022/01/13 06:18:12;;;;;;;38.55;11.88;;;3.90;99.90;;;3.64;89.08;103485.78;5224687;28;20057;-68
2022/01/13 06:20:45;;;;;;;39.80;13.18;;;3.90;99.90;;;3.66;89.08;103486.91;5224489;28;20490;-68
2022/01/13 06:23:17;;;;;;;38.33;12.75;;;3.90;99.90;;;3.59;89.30;103484.41;5224208;28;20045;-68
2022/01/13 06:25:51;;;;;;;40.88;12.65;;;3.80;99.90;;;3.58;89.66;103491.22;5224120;28;20107;-69
2022/01/13 06:28:23;;;;;;;37.17;13.23;;;3.80;99.90;;;3.56;89.77;103495.31;5227208;28;20049;-68
2022/01/13 06:30:55;;;;;;;37.53;12.52;;;3.80;99.90;;;3.58;90.00;103495.47;5228100;28;20056;-68
2022/01/13 06:33:27;;;;;;;39.20;12.68;;;3.80;99.90;;;3.60;90.13;103496.56;5228426;28;20404;-68
2022/01/13 06:35:59;;;;;;;35.50;11.02;;;3.80;99.90;;;3.65;90.21;103495.34;5228053;28;20084;-68
2022/01/13 06:38:31;;;;;;;36.17;11.27;;;3.80;99.90;;;3.68;90.14;103506.03;5228068;28;20131;-68
2022/01/13 06:41:05;;;;;;;42.75;13.05;;;3.90;99.90;;;3.64;89.91;103504.75;5228157;28;20409;-68
2022/01/13 06:43:37;;;;;;;30.42;10.52;;;3.90;99.90;;;3.62;89.90;103505.38;5228061;28;20549;-66
2022/01/13 06:46:09;;;;;;;38.67;11.25;;;3.80;99.90;;;3.63;89.71;103507.19;5227240;28;20057;-66
2022/01/13 06:48:41;;;;;;;37.58;11.82;;;3.80;99.90;;;3.59;89.69;103494.75;5228088;28;20048;-66
2022/01/13 06:51:13;;;;;;;39.22;12.82;;;3.80;99.90;;;3.56;89.86;103500.47;5227805;28;20056;-66
2022/01/13 06:53:45;;;;;;;35.95;13.18;;;3.80;99.90;;;3.59;90.01;103500.81;5227677;28;20061;-66
2022/01/13 06:56:19;;;;;;;34.88;12.05;;;3.80;99.90;;;3.61;89.84;103498.38;5227574;28;20417;-66
2022/01/13 06:58:51;;;;;;;37.72;12.15;;;3.80;99.90;;;3.59;89.88;103505.06;5227453;28;20049;-66
2022/01/13 07:01:23;;;;;;;35.38;11.55;;;3.80;99.90;;;3.59;89.85;103521.44;5227619;28;20075;-66
2022/01/13 07:03:55;;;;;;;37.75;11.18;;;3.80;99.90;;;3.57;89.72;103509.13;5227367;28;20666;-67
2022/01/13 07:06:27;;;;;;;38.30;12.20;;;3.80;99.90;;;3.52;89.94;103512.16;5227940;28;20045;-67
2022/01/13 07:08:59;;;;;;;32.90;11.85;;;3.80;99.90;;;3.46;89.76;103503.75;5227276;28;20501;-67
2022/01/13 07:11:33;;;;;;;40.25;12.60;;;3.70;99.90;;;3.51;90.11;103502.56;5227440;28;20131;-67
2022/01/13 07:14:05;;;;;;;32.95;10.27;;;3.70;99.90;;;3.54;90.18;103508.06;5226505;28;20152;-66
2022/01/13 07:16:38;;;;;;;35.83;11.32;;;3.70;99.90;;;3.57;89.56;103522.94;5227036;28;20138;-66
2022/01/13 07:19:11;;;;;;;24.92;9.82;;;3.70;99.90;;;3.53;89.36;103529.44;5227231;28;20049;-66
2022/01/13 07:21:46;;;;;;;38.78;11.77;;;3.70;99.90;;;3.51;89.40;103523.19;5227216;28;20409;-68
2022/01/13 07:24:18;;;;;;;38.25;11.63;;;3.70;99.90;;;3.47;89.69;103531.38;5227021;28;20049;-67
2022/01/13 07:26:51;;;;;;;33.45;11.70;;;3.70;99.90;;;3.42;90.05;103529.97;5227156;28;20052;-67
2022/01/13 07:29:23;;;;;;;39.25;12.45;;;3.70;99.90;;;3.45;90.06;103543.16;5227299;28;20051;-67
2022/01/13 07:31:55;;;;;;;34.22;11.95;;;3.70;99.90;;;3.42;90.03;103537.69;5227077;28;20246;-67
2022/01/13 07:34:27;;;;;;;40.08;13.13;;;3.60;99.90;;;3.41;89.90;103543.59;5226638;28;20056;-67
2022/01/13 07:36:59;;;;;;;40.47;12.70;;;3.60;99.90;;;3.39;90.10;103539.97;5226801;28;20045;-67
2022/01/13 07:39:31;;;;;;;40.40;12.85;;;3.60;99.90;;;3.39;90.17;103537.38;5226625;28;20100;-67
2022/01/13 07:42:06;;;;;;;37.75;11.38;;;3.60;99.90;;;3.40;90.38;103546.94;5227110;28;20072;-67
2022/01/13 07:44:38;;;;;;;43.95;14.45;;;3.60;99.90;;;3.38;90.52;103556.16;5225731;28;20413;-67
2022/01/13 07:47:10;;;;;;;41.72;12.68;;;3.60;99.90;;;3.30;91.00;103541.53;5226835;28;20055;-66
2022/01/13 07:49:42;;;;;;;45.53;13.82;;;3.60;99.90;;;3.28;90.98;103550.78;5226785;28;20055;-66
2022/01/13 07:52:14;;;;;;;37.78;12.80;;;3.60;99.90;;;3.26;90.86;103547.13;5226838;28;20045;-66
2022/01/13 07:54:45;;;;;;;44.00;13.07;;;3.60;99.90;;;3.21;91.19;103548.28;5226183;28;20052;-66
2022/01/13 07:57:19;;;;;;;45.85;14.70;;;3.50;99.90;;;3.23;91.19;103541.63;5226458;28;20071;-66
2022/01/13 07:59:52;;;;;;;45.05;13.18;;;3.50;99.90;;;3.25;90.87;103542.69;5226665;28;20051;-66
2022/01/13 08:02:24;;;;;;;43.13;14.00;;;3.50;99.90;;;3.29;90.75;103544.88;5226389;28;20489;-66
2022/01/13 08:04:56;;;;;;;47.38;14.23;;;3.60;99.90;;;3.17;90.62;103543.53;5225834;28;20048;-66
2022/01/13 08:07:28;;;;;;;42.83;13.77;;;3.50;99.90;;;3.07;90.94;103562.28;5226319;28;20049;-66
2022/01/13 08:10:00;;;;;;;40.35;12.68;;;3.50;99.90;;;3.07;91.50;103556.19;5226202;28;20052;-66
2022/01/13 08:12:34;;;;;;;41.25;12.60;;;3.50;99.90;;;3.08;91.15;103563.19;5226454;28;20064;-66
2022/01/13 08:15:10;;;;;;;39.58;11.23;;;3.40;99.90;;;3.10;91.10;103570.31;5225803;28;20057;-66
2022/01/13 08:20:34;;;;;;;38.30;11.82;;;3.40;99.90;;;3.12;91.10;103566.22;5226170;28;20413;-66
2022/01/13 08:23:06;;;;;;;42.50;11.80;;;3.40;99.90;;;3.14;90.83;103569.91;5226365;28;20493;-66
2022/01/13 08:25:38;;;;;;;34.47;9.82;;;3.40;99.90;;;3.12;90.71;103568.81;5225737;28;20048;-66
2022/01/13 08:28:11;;;;;;;39.53;12.05;;;3.40;99.90;;;2.99;90.94;103569.13;5226013;28;20489;-66
2022/01/13 08:30:44;;;;;;;40.83;12.45;;;3.40;99.90;;;2.96;91.40;103568.81;5225766;28;20049;-66
2022/01/13 08:33:17;;;;;;;38.42;12.07;;;3.40;99.90;;;3.00;91.17;103575.25;5225795;28;20048;-66
2022/01/13 08:35:49;;;;;;;36.50;11.82;;;3.30;99.90;;;3.03;91.38;103579.78;5225243;28;20052;-66
2022/01/13 08:38:23;;;;;;;35.50;12.10;;;3.40;99.90;;;3.09;91.23;103575.31;5226013;28;20045;-66
2022/01/13 08:40:59;;;;;;;40.15;11.68;;;3.40;99.90;;;3.06;90.96;103569.81;5226004;28;20052;-66
2022/01/13 08:43:34;;;;;;;37.63;11.23;;;3.40;99.90;;;3.10;90.88;103572.91;5225914;28;20045;-66
2022/01/13 08:46:06;;;;;;;39.17;12.05;;;3.40;99.90;;;3.14;90.59;103569.00;5225379;28;20052;-66
2022/01/13 08:48:38;;;;;;;43.50;12.65;;;3.40;99.90;;;3.11;90.68;103568.66;5225504;28;20053;-66
2022/01/13 08:51:10;;;;;;;34.83;11.77;;;3.40;99.90;;;3.08;91.03;103560.59;5225292;28;20546;-67
2022/01/13 08:53:42;;;;;;;37.83;11.52;;;3.40;99.90;;;3.08;91.21;103565.75;5225608;28;20068;-66
2022/01/13 08:56:15;;;;;;;38.10;11.88;;;3.40;99.90;;;3.15;90.82;103565.66;5225531;28;20055;-67
2022/01/13 08:58:48;;;;;;;45.83;12.77;;;3.40;99.90;;;3.24;90.54;103571.81;5225409;28;20052;-66
2022/01/13 09:01:20;;;;;;;39.42;12.18;;;3.50;99.90;;;3.17;90.80;103577.97;5225446;28;20047;-69
2022/01/13 09:03:52;;;;;;;43.53;12.90;;;3.50;99.90;;;3.19;91.13;103583.28;5225522;28;20067;-69
2022/01/13 09:06:24;;;;;;;43.10;12.75;;;3.50;99.90;;;3.23;91.32;103580.31;5225873;28;20071;-69
2022/01/13 09:08:57;;;;;;;34.30;11.15;;;3.50;99.90;;;3.23;90.69;103585.47;5225844;28;20059;-70
2022/01/13 09:11:30;;;;;;;35.13;10.68;;;3.60;99.90;;;3.28;90.79;103586.88;5225317;28;20057;-68
2022/01/13 09:14:03;;;;;;;36.35;11.68;;;3.60;99.90;;;3.32;90.62;103586.44;5225508;28;20398;-69
2022/01/13 09:16:42;;;;;;;37.67;11.63;;;3.60;99.90;;;3.28;90.10;103579.16;5225640;28;20048;-69
2022/01/13 09:19:17;;;;;;;18.50;6.30;;;3.60;99.90;;;3.75;96.79;103580.75;5225465;28;20049;-68
2022/01/13 09:21:52;;;;;;;24.92;7.53;;;3.90;99.90;;;5.56;100.00;103575.31;5226290;28;20041;-68
2022/01/13 09:24:24;;;;;;;40.92;13.75;;;5.30;99.90;;;5.80;100.00;103571.63;5225687;28;20493;-69
2022/01/13 09:26:56;;;;;;;36.80;11.18;;;5.90;99.90;;;5.45;93.28;103568.16;5225754;28;20045;-68
2022/01/13 09:29:29;;;;;;;33.83;11.60;;;5.90;99.90;;;5.02;87.73;103570.69;5225621;28;20049;-68
2022/01/13 09:32:02;;;;;;;35.45;11.02;;;5.60;99.90;;;4.71;86.50;103570.16;5225620;28;20048;-68
2022/01/13 09:34:34;;;;;;;36.05;11.10;;;5.30;99.90;;;4.52;86.72;103575.13;5225533;28;20052;-68
2022/01/13 09:37:06;;;;;;;31.00;9.20;;;5.10;99.90;;;4.41;86.30;103580.81;5225703;28;20059;-69
2022/01/13 09:39:38;;;;;;;31.17;9.10;;;4.90;99.90;;;4.94;95.74;103577.66;5225527;28;20080;-66
2022/01/13 09:42:11;;;;;;;39.90;12.50;;;5.10;99.90;;;5.56;98.42;103584.75;5225725;28;20493;-68
2022/01/13 09:44:47;;;;;;;35.22;10.48;;;5.70;99.90;;;5.42;90.16;103591.16;5225208;28;20041;-68
2022/01/13 09:47:19;;;;;;;32.85;10.43;;;5.80;99.90;;;5.15;85.56;103589.25;5225195;28;20051;-68
2022/01/13 09:49:51;;;;;;;32.95;9.90;;;5.60;99.90;;;4.71;82.54;103592.50;5225320;28;20049;-68
2022/01/13 09:52:24;;;;;;;30.40;11.02;;;5.30;99.90;;;4.55;83.75;103585.75;5225309;28;20055;-68
2022/01/13 09:54:56;;;;;;;32.15;10.00;;;5.10;99.90;;;4.52;83.81;103585.44;5225451;28;20139;-68
2022/01/13 09:57:28;;;;;;;29.27;9.43;;;5.00;99.90;;;4.51;83.43;103588.78;5225427;28;20089;-68
2022/01/13 10:00:04;;;;;;;29.63;10.27;;;4.90;99.90;;;4.55;83.39;103582.25;5225199;28;20401;-68
2022/01/13 10:02:36;;;;;;;31.00;9.60;;;4.90;99.90;;;4.58;83.52;103591.25;5228377;28;20057;-68
2022/01/13 10:05:09;;;;;;;33.55;10.48;;;4.90;99.90;;;4.43;82.99;103587.06;5229087;28;20047;-68
2022/01/13 10:07:44;;;;;;;30.88;10.10;;;4.80;99.90;;;4.52;83.42;103590.63;5229134;28;20072;-67
2022/01/13 10:10:19;;;;;;;30.85;9.18;;;4.80;99.90;;;4.58;83.23;103590.34;5228952;28;20056;-67
2022/01/13 10:13:04;;;;;;;31.92;8.85;;;4.80;99.90;;;4.62;83.42;103583.03;5229114;28;20049;-67
2022/01/13 10:18:43;;;;;;;32.75;11.05;;;4.90;99.90;;;4.79;82.54;103582.19;5229312;28;20187;-68
2022/01/13 10:21:19;;;;;;;29.30;9.57;;;5.00;99.90;;;4.93;82.26;103583.59;5229367;28;20045;-67
2022/01/13 10:24:11;;;;;;;31.85;10.48;;;5.00;99.90;;;4.96;82.13;103576.16;5229085;28;20056;-67
2022/01/13 10:27:06;;;;;;;30.88;9.27;;;5.10;99.90;;;5.13;81.70;103575.28;5229112;28;20135;-68
2022/01/13 10:29:46;;;;;;;26.27;9.25;;;5.20;99.90;;;5.24;81.30;103576.34;5229308;28;20424;-67
2022/01/13 10:32:22;;;;;;;29.67;10.60;;;5.30;99.90;;;5.25;80.30;103573.91;5228901;28;20124;-67
2022/01/13 10:35:00;;;;;;;28.27;9.82;;;5.30;99.90;;;5.22;79.94;103573.63;5229014;28;20490;-68
2022/01/13 10:37:34;;;;;;;28.90;9.32;;;5.40;99.90;;;5.24;79.79;103573.78;5229122;28;20067;-68
2022/01/13 10:40:10;;;;;;;34.60;10.05;;;5.40;99.90;;;5.31;80.20;103576.22;5229130;28;20410;-67
2022/01/13 10:43:07;;;;;;;31.02;9.95;;;5.40;99.90;;;5.29;78.77;103585.50;5228674;28;20096;-68
2022/01/13 10:45:43;;;;;;;28.20;9.93;;;5.50;99.90;;;5.45;79.32;103582.00;5228774;28;20416;-67
2022/01/13 10:48:22;;;;;;;26.48;9.00;;;5.50;99.90;;;5.65;78.93;103576.19;5228598;28;20059;-67
2022/01/13 10:50:58;;;;;;;33.22;10.38;;;5.60;99.90;;;5.69;78.50;103568.00;5228725;28;20052;-67
2022/01/13 10:53:33;;;;;;;28.60;9.30;;;5.70;99.90;;;5.64;78.02;103566.63;5228783;28;20084;-67
2022/01/13 10:56:09;;;;;;;33.72;10.05;;;5.70;99.90;;;5.79;78.36;103561.13;5228613;28;20510;-67
2022/01/13 10:58:49;;;;;;;32.65;9.23;;;5.80;99.90;;;6.02;77.98;103553.03;5228434;28;20080;-68
2022/01/13 11:01:21;;;;;;;28.45;9.30;;;5.90;99.90;;;6.15;77.00;103554.38;5228375;28;20045;-68
2022/01/13 11:03:55;;;;;;;32.33;10.75;;;6.00;99.90;;;6.27;77.23;103558.91;5228414;28;20051;-68